Glidden, Iowa
Current Conditions -  °F | °C
As of 8:35 AM on Wednesday 22 Oct 2014 (Local Time) from KCIN Reporting Station
Overcast Overcast  
Wind Chill:   Ceiling: 3300
Heat Index:   Visibility: 10mi
Dew Point:   Wind: 12mph
Humidity: 76%   Direction: 150°SSE
Pressure: 30.15"   Gusts: 20mph
Location:  42.06°N, 94.73°W
Report Text: KCIN 221335Z AUTO 15010G17KT 10SM OVC033 09/05 A3015 RMK AO2
Loading
Personal Weather Stations






























Interactive Weather Map
Tropical Storm Tracking
New forecast layout! Learn more

10-Day Weather Forecast

Advertisements
Track Severe Weather on mobile